Lowville, Pennsylvania
Current Conditions -  °F | °C
As of 7:51 PM on Saturday 25 Oct 2014 (Local Time) from KERI Reporting Station
Clear Clear  
Wind Chill: 58°   Ceiling: Unl
Heat Index: 58°   Visibility: 8mi
Dew Point: 52°   Wind: 7mph
Humidity: 81%   Direction: 250°WSW
Pressure: 29.7"   Gusts: NA
Location:  42.0384°N, 79.8318°W
Report Text: KERI 252351Z 25006KT 8SM CLR 14/11 A2970 RMK AO2 SLP057 T01440111 10161 20144 58001
Loading
Personal Weather Stations






























Interactive Weather Map
Tropical Storm Tracking
New forecast layout! Learn more

10-Day Weather Forecast

Advertisements
Track Severe Weather on mobile